sensor_id;sensor_type;location;lat;lon;timestamp;P1;durP1;ratioP1;P2;durP2;ratioP2
22634;SDS011;11484;50.858;4.384;2023-02-01T00:01:59;24.98;;;9.38;;
22634;SDS011;11484;50.858;4.384;2023-02-01T00:04:26;20.95;;;8.65;;
22634;SDS011;11484;50.858;4.384;2023-02-01T00:06:52;19.90;;;9.13;;
22634;SDS011;11484;50.858;4.384;2023-02-01T00:09:18;21.58;;;8.73;;
22634;SDS011;11484;50.858;4.384;2023-02-01T00:11:44;21.42;;;9.23;;
22634;SDS011;11484;50.858;4.384;2023-02-01T00:14:09;23.08;;;10.07;;
22634;SDS011;11484;50.858;4.384;2023-02-01T00:16:35;20.02;;;9.02;;
22634;SDS011;11484;50.858;4.384;2023-02-01T00:19:03;22.08;;;9.75;;
22634;SDS011;11484;50.858;4.384;2023-02-01T00:21:32;21.42;;;9.38;;
22634;SDS011;11484;50.858;4.384;2023-02-01T00:23:58;23.30;;;9.77;;
22634;SDS011;11484;50.858;4.384;2023-02-01T00:28:52;21.95;;;9.85;;
22634;SDS011;11484;50.858;4.384;2023-02-01T00:31:18;24.90;;;9.55;;
22634;SDS011;11484;50.858;4.384;2023-02-01T00:33:46;25.35;;;10.02;;
22634;SDS011;11484;50.858;4.384;2023-02-01T00:36:13;20.10;;;9.80;;
22634;SDS011;11484;50.858;4.384;2023-02-01T00:38:39;23.50;;;10.38;;
22634;SDS011;11484;50.858;4.384;2023-02-01T00:41:12;23.15;;;9.50;;
22634;SDS011;11484;50.858;4.384;2023-02-01T00:43:40;23.08;;;9.30;;
22634;SDS011;11484;50.858;4.384;2023-02-01T00:46:06;24.77;;;9.40;;
22634;SDS011;11484;50.858;4.384;2023-02-01T00:48:32;23.38;;;8.80;;
22634;SDS011;11484;50.858;4.384;2023-02-01T00:50:59;22.42;;;8.05;;
22634;SDS011;11484;50.858;4.384;2023-02-01T00:53:29;20.33;;;7.47;;
22634;SDS011;11484;50.858;4.384;2023-02-01T00:55:56;21.75;;;7.57;;
22634;SDS011;11484;50.858;4.384;2023-02-01T00:58:22;18.38;;;6.47;;
22634;SDS011;11484;50.858;4.384;2023-02-01T01:00:56;18.25;;;6.88;;
22634;SDS011;11484;50.858;4.384;2023-02-01T01:03:33;20.58;;;7.10;;
22634;SDS011;11484;50.858;4.384;2023-02-01T01:06:00;17.77;;;7.00;;
22634;SDS011;11484;50.858;4.384;2023-02-01T01:08:27;18.27;;;6.85;;
22634;SDS011;11484;50.858;4.384;2023-02-01T01:10:54;16.65;;;6.70;;
22634;SDS011;11484;50.858;4.384;2023-02-01T01:13:20;20.45;;;6.97;;
22634;SDS011;11484;50.858;4.384;2023-02-01T01:15:46;18.55;;;6.47;;
22634;SDS011;11484;50.858;4.384;2023-02-01T01:18:11;21.95;;;6.88;;
22634;SDS011;11484;50.858;4.384;2023-02-01T01:20:38;24.80;;;6.85;;
22634;SDS011;11484;50.858;4.384;2023-02-01T01:23:05;17.52;;;6.35;;
22634;SDS011;11484;50.858;4.384;2023-02-01T01:25:32;21.60;;;7.03;;
22634;SDS011;11484;50.858;4.384;2023-02-01T01:28:01;19.05;;;6.57;;
22634;SDS011;11484;50.858;4.384;2023-02-01T01:30:27;21.02;;;6.30;;
22634;SDS011;11484;50.858;4.384;2023-02-01T01:32:53;20.17;;;5.88;;
22634;SDS011;11484;50.858;4.384;2023-02-01T01:35:18;20.25;;;5.55;;
22634;SDS011;11484;50.858;4.384;2023-02-01T01:37:44;18.17;;;5.35;;
22634;SDS011;11484;50.858;4.384;2023-02-01T01:40:10;16.17;;;5.20;;
22634;SDS011;11484;50.858;4.384;2023-02-01T01:42:38;13.70;;;4.65;;
22634;SDS011;11484;50.858;4.384;2023-02-01T01:45:18;18.95;;;5.05;;
22634;SDS011;11484;50.858;4.384;2023-02-01T01:47:52;19.55;;;4.72;;
22634;SDS011;11484;50.858;4.384;2023-02-01T01:50:28;20.15;;;4.53;;
22634;SDS011;11484;50.858;4.384;2023-02-01T01:53:08;14.82;;;4.25;;
22634;SDS011;11484;50.858;4.384;2023-02-01T01:55:38;18.05;;;4.47;;
22634;SDS011;11484;50.858;4.384;2023-02-01T01:58:27;16.60;;;4.20;;
22634;SDS011;11484;50.858;4.384;2023-02-01T02:00:57;17.92;;;4.30;;
22634;SDS011;11484;50.858;4.384;2023-02-01T02:03:27;17.95;;;4.10;;
22634;SDS011;11484;50.858;4.384;2023-02-01T02:06:03;15.48;;;3.63;;
22634;SDS011;11484;50.858;4.384;2023-02-01T02:08:34;16.02;;;4.00;;
22634;SDS011;11484;50.858;4.384;2023-02-01T02:11:00;15.55;;;3.70;;
22634;SDS011;11484;50.858;4.384;2023-02-01T02:13:30;14.95;;;3.95;;
22634;SDS011;11484;50.858;4.384;2023-02-01T02:16:24;13.73;;;4.32;;
22634;SDS011;11484;50.858;4.384;2023-02-01T02:19:00;14.35;;;4.10;;
22634;SDS011;11484;50.858;4.384;2023-02-01T02:27:10;14.13;;;4.30;;
22634;SDS011;11484;50.858;4.384;2023-02-01T02:29:56;17.85;;;3.80;;
22634;SDS011;11484;50.858;4.384;2023-02-01T02:35:52;19.00;;;3.47;;
22634;SDS011;11484;50.858;4.384;2023-02-01T02:38:45;23.48;;;4.10;;
22634;SDS011;11484;50.858;4.384;2023-02-01T02:41:27;15.00;;;4.15;;
22634;SDS011;11484;50.858;4.384;2023-02-01T02:48:04;18.63;;;3.97;;
22634;SDS011;11484;50.858;4.384;2023-02-01T02:50:44;14.93;;;3.95;;
22634;SDS011;11484;50.858;4.384;2023-02-01T02:53:49;18.95;;;4.03;;
22634;SDS011;11484;50.858;4.384;2023-02-01T02:56:48;15.10;;;4.55;;
22634;SDS011;11484;50.858;4.384;2023-02-01T02:59:34;13.30;;;3.67;;
22634;SDS011;11484;50.858;4.384;2023-02-01T03:02:21;13.43;;;3.42;;
22634;SDS011;11484;50.858;4.384;2023-02-01T03:05:06;12.02;;;3.58;;
22634;SDS011;11484;50.858;4.384;2023-02-01T03:10:30;18.77;;;4.18;;
22634;SDS011;11484;50.858;4.384;2023-02-01T03:13:03;13.55;;;3.67;;
22634;SDS011;11484;50.858;4.384;2023-02-01T03:15:33;17.52;;;3.55;;
22634;SDS011;11484;50.858;4.384;2023-02-01T03:18:07;13.43;;;3.50;;
22634;SDS011;11484;50.858;4.384;2023-02-01T03:20:38;19.10;;;3.63;;
22634;SDS011;11484;50.858;4.384;2023-02-01T03:23:07;14.98;;;3.92;;
22634;SDS011;11484;50.858;4.384;2023-02-01T03:25:35;16.80;;;3.80;;
22634;SDS011;11484;50.858;4.384;2023-02-01T03:28:02;20.65;;;3.78;;
22634;SDS011;11484;50.858;4.384;2023-02-01T03:30:43;19.70;;;3.75;;
22634;SDS011;11484;50.858;4.384;2023-02-01T03:33:10;13.20;;;3.72;;
22634;SDS011;11484;50.858;4.384;2023-02-01T03:35:54;17.27;;;4.07;;
22634;SDS011;11484;50.858;4.384;2023-02-01T03:41:12;19.73;;;3.90;;
22634;SDS011;11484;50.858;4.384;2023-02-01T03:43:55;15.45;;;3.40;;
22634;SDS011;11484;50.858;4.384;2023-02-01T03:46:33;20.48;;;4.10;;
22634;SDS011;11484;50.858;4.384;2023-02-01T03:49:05;13.35;;;3.33;;
22634;SDS011;11484;50.858;4.384;2023-02-01T03:51:33;12.82;;;3.42;;
22634;SDS011;11484;50.858;4.384;2023-02-01T03:54:01;13.43;;;3.75;;
22634;SDS011;11484;50.858;4.384;2023-02-01T03:56:28;19.65;;;4.13;;
22634;SDS011;11484;50.858;4.384;2023-02-01T03:58:56;19.88;;;3.50;;
22634;SDS011;11484;50.858;4.384;2023-02-01T04:01:26;14.52;;;3.50;;
22634;SDS011;11484;50.858;4.384;2023-02-01T04:03:52;21.73;;;3.85;;
22634;SDS011;11484;50.858;4.384;2023-02-01T04:06:19;21.77;;;3.63;;
22634;SDS011;11484;50.858;4.384;2023-02-01T04:08:44;19.42;;;4.43;;
22634;SDS011;11484;50.858;4.384;2023-02-01T04:11:10;21.75;;;3.80;;
22634;SDS011;11484;50.858;4.384;2023-02-01T04:13:36;16.98;;;3.85;;
22634;SDS011;11484;50.858;4.384;2023-02-01T04:16:02;12.65;;;3.33;;
22634;SDS011;11484;50.858;4.384;2023-02-01T04:18:28;15.90;;;4.40;;
22634;SDS011;11484;50.858;4.384;2023-02-01T04:20:53;15.32;;;3.45;;
22634;SDS011;11484;50.858;4.384;2023-02-01T04:23:19;18.77;;;3.85;;
22634;SDS011;11484;50.858;4.384;2023-02-01T04:25:45;14.98;;;3.33;;
22634;SDS011;11484;50.858;4.384;2023-02-01T04:28:11;14.18;;;3.40;;
22634;SDS011;11484;50.858;4.384;2023-02-01T04:30:37;17.17;;;3.75;;
22634;SDS011;11484;50.858;4.384;2023-02-01T04:33:02;19.23;;;4.18;;
22634;SDS011;11484;50.858;4.384;2023-02-01T04:35:31;15.38;;;3.55;;
22634;SDS011;11484;50.858;4.384;2023-02-01T04:37:57;16.10;;;3.35;;
22634;SDS011;11484;50.858;4.384;2023-02-01T04:40:24;16.33;;;3.63;;
22634;SDS011;11484;50.858;4.384;2023-02-01T04:42:49;23.90;;;3.90;;
22634;SDS011;11484;50.858;4.384;2023-02-01T04:45:15;15.20;;;3.40;;
22634;SDS011;11484;50.858;4.384;2023-02-01T04:47:41;16.70;;;3.92;;
22634;SDS011;11484;50.858;4.384;2023-02-01T04:50:07;15.77;;;3.97;;
22634;SDS011;11484;50.858;4.384;2023-02-01T04:52:35;21.95;;;4.10;;
22634;SDS011;11484;50.858;4.384;2023-02-01T04:55:02;18.08;;;3.83;;
22634;SDS011;11484;50.858;4.384;2023-02-01T04:57:28;16.75;;;3.92;;
22634;SDS011;11484;50.858;4.384;2023-02-01T04:59:54;16.40;;;4.20;;
22634;SDS011;11484;50.858;4.384;2023-02-01T05:02:20;16.70;;;3.90;;
22634;SDS011;11484;50.858;4.384;2023-02-01T05:04:45;16.92;;;4.15;;
22634;SDS011;11484;50.858;4.384;2023-02-01T05:07:11;15.65;;;3.55;;
22634;SDS011;11484;50.858;4.384;2023-02-01T05:09:37;18.42;;;3.72;;
22634;SDS011;11484;50.858;4.384;2023-02-01T05:12:03;12.05;;;3.13;;
22634;SDS011;11484;50.858;4.384;2023-02-01T05:14:47;20.88;;;4.18;;
22634;SDS011;11484;50.858;4.384;2023-02-01T05:17:14;21.10;;;3.83;;
22634;SDS011;11484;50.858;4.384;2023-02-01T05:19:39;11.68;;;3.28;;
22634;SDS011;11484;50.858;4.384;2023-02-01T05:22:05;16.23;;;3.90;;
22634;SDS011;11484;50.858;4.384;2023-02-01T05:24:31;15.77;;;3.83;;
22634;SDS011;11484;50.858;4.384;2023-02-01T05:26:57;21.90;;;3.95;;
22634;SDS011;11484;50.858;4.384;2023-02-01T05:29:22;24.20;;;4.03;;
22634;SDS011;11484;50.858;4.384;2023-02-01T05:31:48;17.75;;;3.60;;
22634;SDS011;11484;50.858;4.384;2023-02-01T05:34:14;16.45;;;3.65;;
22634;SDS011;11484;50.858;4.384;2023-02-01T05:36:41;21.33;;;4.20;;
22634;SDS011;11484;50.858;4.384;2023-02-01T05:39:07;16.60;;;3.90;;
22634;SDS011;11484;50.858;4.384;2023-02-01T05:41:33;12.60;;;3.60;;
22634;SDS011;11484;50.858;4.384;2023-02-01T05:43:59;18.65;;;3.85;;
22634;SDS011;11484;50.858;4.384;2023-02-01T05:46:25;17.83;;;3.75;;
22634;SDS011;11484;50.858;4.384;2023-02-01T05:48:50;16.60;;;3.90;;
22634;SDS011;11484;50.858;4.384;2023-02-01T05:51:16;14.10;;;3.72;;
22634;SDS011;11484;50.858;4.384;2023-02-01T05:53:42;14.93;;;3.78;;
22634;SDS011;11484;50.858;4.384;2023-02-01T05:56:07;22.02;;;3.70;;
22634;SDS011;11484;50.858;4.384;2023-02-01T05:58:33;19.98;;;4.38;;
22634;SDS011;11484;50.858;4.384;2023-02-01T06:00:59;17.95;;;3.70;;
22634;SDS011;11484;50.858;4.384;2023-02-01T06:03:25;18.25;;;4.10;;
22634;SDS011;11484;50.858;4.384;2023-02-01T06:05:53;22.95;;;4.55;;
22634;SDS011;11484;50.858;4.384;2023-02-01T06:08:20;18.05;;;3.85;;
22634;SDS011;11484;50.858;4.384;2023-02-01T06:10:46;23.80;;;3.80;;
22634;SDS011;11484;50.858;4.384;2023-02-01T06:13:11;20.77;;;3.88;;
22634;SDS011;11484;50.858;4.384;2023-02-01T06:15:37;26.85;;;4.65;;
22634;SDS011;11484;50.858;4.384;2023-02-01T06:18:03;17.77;;;3.55;;
22634;SDS011;11484;50.858;4.384;2023-02-01T06:20:29;15.15;;;3.35;;
22634;SDS011;11484;50.858;4.384;2023-02-01T06:22:55;21.27;;;4.45;;
22634;SDS011;11484;50.858;4.384;2023-02-01T06:25:20;19.15;;;4.25;;
22634;SDS011;11484;50.858;4.384;2023-02-01T06:27:46;17.55;;;3.45;;
22634;SDS011;11484;50.858;4.384;2023-02-01T06:30:13;18.85;;;3.83;;
22634;SDS011;11484;50.858;4.384;2023-02-01T06:32:39;24.27;;;4.53;;
22634;SDS011;11484;50.858;4.384;2023-02-01T06:35:06;21.02;;;3.85;;
22634;SDS011;11484;50.858;4.384;2023-02-01T06:37:36;13.13;;;3.10;;
22634;SDS011;11484;50.858;4.384;2023-02-01T06:40:02;24.20;;;3.80;;
22634;SDS011;11484;50.858;4.384;2023-02-01T06:42:29;19.75;;;4.00;;
22634;SDS011;11484;50.858;4.384;2023-02-01T06:44:55;18.90;;;4.05;;
22634;SDS011;11484;50.858;4.384;2023-02-01T06:47:20;17.02;;;3.70;;
22634;SDS011;11484;50.858;4.384;2023-02-01T06:49:46;20.73;;;3.78;;
22634;SDS011;11484;50.858;4.384;2023-02-01T06:52:12;14.38;;;4.00;;
22634;SDS011;11484;50.858;4.384;2023-02-01T06:54:38;15.90;;;3.80;;
22634;SDS011;11484;50.858;4.384;2023-02-01T06:57:03;30.13;;;4.22;;
22634;SDS011;11484;50.858;4.384;2023-02-01T06:59:29;25.05;;;4.15;;
22634;SDS011;11484;50.858;4.384;2023-02-01T07:01:55;28.13;;;4.65;;
22634;SDS011;11484;50.858;4.384;2023-02-01T07:04:21;29.80;;;7.97;;
22634;SDS011;11484;50.858;4.384;2023-02-01T07:06:47;24.08;;;4.57;;
22634;SDS011;11484;50.858;4.384;2023-02-01T07:09:13;23.48;;;5.93;;
22634;SDS011;11484;50.858;4.384;2023-02-01T07:11:39;16.85;;;4.15;;
22634;SDS011;11484;50.858;4.384;2023-02-01T07:14:09;26.80;;;4.10;;
22634;SDS011;11484;50.858;4.384;2023-02-01T07:16:35;20.30;;;4.00;;
22634;SDS011;11484;50.858;4.384;2023-02-01T07:19:02;28.85;;;4.80;;
22634;SDS011;11484;50.858;4.384;2023-02-01T07:21:27;20.90;;;4.00;;
22634;SDS011;11484;50.858;4.384;2023-02-01T07:23:54;17.83;;;4.18;;
22634;SDS011;11484;50.858;4.384;2023-02-01T07:26:20;25.85;;;4.45;;
22634;SDS011;11484;50.858;4.384;2023-02-01T07:28:46;19.05;;;4.15;;
22634;SDS011;11484;50.858;4.384;2023-02-01T07:31:17;17.73;;;4.35;;
22634;SDS011;11484;50.858;4.384;2023-02-01T07:33:49;19.88;;;3.70;;
22634;SDS011;11484;50.858;4.384;2023-02-01T07:36:16;19.52;;;4.07;;
22634;SDS011;11484;50.858;4.384;2023-02-01T07:38:43;28.85;;;5.45;;
22634;SDS011;11484;50.858;4.384;2023-02-01T07:41:09;17.88;;;4.88;;
22634;SDS011;11484;50.858;4.384;2023-02-01T07:43:35;31.52;;;5.50;;
22634;SDS011;11484;50.858;4.384;2023-02-01T07:46:03;13.38;;;3.97;;
22634;SDS011;11484;50.858;4.384;2023-02-01T07:48:36;29.52;;;4.50;;
22634;SDS011;11484;50.858;4.384;2023-02-01T07:51:08;23.50;;;4.65;;
22634;SDS011;11484;50.858;4.384;2023-02-01T07:53:36;17.35;;;4.10;;
22634;SDS011;11484;50.858;4.384;2023-02-01T07:56:02;22.80;;;4.82;;
22634;SDS011;11484;50.858;4.384;2023-02-01T07:58:28;26.58;;;5.07;;
22634;SDS011;11484;50.858;4.384;2023-02-01T08:00:56;24.15;;;6.78;;
22634;SDS011;11484;50.858;4.384;2023-02-01T08:03:41;16.50;;;3.88;;
22634;SDS011;11484;50.858;4.384;2023-02-01T08:06:07;17.08;;;4.32;;
22634;SDS011;11484;50.858;4.384;2023-02-01T08:08:33;32.13;;;4.97;;
22634;SDS011;11484;50.858;4.384;2023-02-01T08:10:59;22.80;;;5.07;;
22634;SDS011;11484;50.858;4.384;2023-02-01T08:13:26;21.98;;;4.60;;
22634;SDS011;11484;50.858;4.384;2023-02-01T08:15:52;19.75;;;5.72;;
22634;SDS011;11484;50.858;4.384;2023-02-01T08:18:22;18.95;;;4.30;;
22634;SDS011;11484;50.858;4.384;2023-02-01T08:20:48;19.05;;;4.30;;
22634;SDS011;11484;50.858;4.384;2023-02-01T08:23:13;22.98;;;5.93;;
22634;SDS011;11484;50.858;4.384;2023-02-01T08:25:39;18.13;;;4.60;;
22634;SDS011;11484;50.858;4.384;2023-02-01T08:28:06;17.67;;;4.38;;
22634;SDS011;11484;50.858;4.384;2023-02-01T08:30:32;13.13;;;3.45;;
22634;SDS011;11484;50.858;4.384;2023-02-01T08:32:58;15.73;;;3.88;;
22634;SDS011;11484;50.858;4.384;2023-02-01T08:35:24;15.82;;;4.25;;
22634;SDS011;11484;50.858;4.384;2023-02-01T08:37:50;30.13;;;4.97;;
22634;SDS011;11484;50.858;4.384;2023-02-01T08:40:16;22.77;;;4.47;;
22634;SDS011;11484;50.858;4.384;2023-02-01T08:42:42;16.88;;;3.83;;
22634;SDS011;11484;50.858;4.384;2023-02-01T08:45:18;17.30;;;4.75;;
22634;SDS011;11484;50.858;4.384;2023-02-01T08:47:51;17.20;;;3.88;;
22634;SDS011;11484;50.858;4.384;2023-02-01T08:50:20;22.45;;;4.65;;
22634;SDS011;11484;50.858;4.384;2023-02-01T08:52:47;20.48;;;4.75;;
22634;SDS011;11484;50.858;4.384;2023-02-01T08:55:13;18.33;;;3.80;;
22634;SDS011;11484;50.858;4.384;2023-02-01T08:57:40;18.42;;;4.82;;
22634;SDS011;11484;50.858;4.384;2023-02-01T09:00:07;30.52;;;6.60;;
22634;SDS011;11484;50.858;4.384;2023-02-01T09:02:35;15.50;;;3.78;;
22634;SDS011;11484;50.858;4.384;2023-02-01T09:05:01;18.40;;;3.90;;
22634;SDS011;11484;50.858;4.384;2023-02-01T09:07:29;16.60;;;3.78;;
22634;SDS011;11484;50.858;4.384;2023-02-01T09:09:54;19.38;;;3.33;;
22634;SDS011;11484;50.858;4.384;2023-02-01T09:12:21;27.60;;;4.88;;
22634;SDS011;11484;50.858;4.384;2023-02-01T09:14:47;26.05;;;4.97;;
22634;SDS011;11484;50.858;4.384;2023-02-01T09:17:13;17.83;;;4.13;;
22634;SDS011;11484;50.858;4.384;2023-02-01T09:19:39;26.88;;;4.85;;
22634;SDS011;11484;50.858;4.384;2023-02-01T09:22:05;24.85;;;4.47;;
22634;SDS011;11484;50.858;4.384;2023-02-01T09:24:31;18.10;;;4.55;;
22634;SDS011;11484;50.858;4.384;2023-02-01T09:26:56;25.75;;;5.45;;
22634;SDS011;11484;50.858;4.384;2023-02-01T09:29:22;18.10;;;4.35;;
22634;SDS011;11484;50.858;4.384;2023-02-01T09:31:48;21.25;;;4.30;;
22634;SDS011;11484;50.858;4.384;2023-02-01T09:34:13;13.60;;;4.25;;
22634;SDS011;11484;50.858;4.384;2023-02-01T09:36:39;17.00;;;4.22;;
22634;SDS011;11484;50.858;4.384;2023-02-01T09:39:05;25.92;;;5.68;;
22634;SDS011;11484;50.858;4.384;2023-02-01T09:47:19;25.23;;;5.20;;
22634;SDS011;11484;50.858;4.384;2023-02-01T09:52:29;21.02;;;4.38;;
22634;SDS011;11484;50.858;4.384;2023-02-01T09:55:03;20.80;;;4.88;;
22634;SDS011;11484;50.858;4.384;2023-02-01T09:57:57;19.75;;;4.68;;
22634;SDS011;11484;50.858;4.384;2023-02-01T10:00:25;16.90;;;4.32;;
22634;SDS011;11484;50.858;4.384;2023-02-01T10:02:54;21.42;;;4.22;;
22634;SDS011;11484;50.858;4.384;2023-02-01T10:08:30;20.55;;;4.53;;
22634;SDS011;11484;50.858;4.384;2023-02-01T10:11:18;21.23;;;4.43;;
22634;SDS011;11484;50.858;4.384;2023-02-01T10:19:58;20.90;;;3.55;;
22634;SDS011;11484;50.858;4.384;2023-02-01T10:22:50;18.42;;;3.80;;
22634;SDS011;11484;50.858;4.384;2023-02-01T10:25:37;16.77;;;3.63;;
22634;SDS011;11484;50.858;4.384;2023-02-01T10:28:15;19.25;;;4.50;;
22634;SDS011;11484;50.858;4.384;2023-02-01T10:30:44;20.25;;;4.05;;
22634;SDS011;11484;50.858;4.384;2023-02-01T10:33:15;13.25;;;3.45;;
22634;SDS011;11484;50.858;4.384;2023-02-01T10:38:12;19.27;;;3.83;;
22634;SDS011;11484;50.858;4.384;2023-02-01T10:40:53;13.40;;;3.17;;
22634;SDS011;11484;50.858;4.384;2023-02-01T10:43:24;18.35;;;3.38;;
22634;SDS011;11484;50.858;4.384;2023-02-01T10:45:50;23.55;;;4.40;;
22634;SDS011;11484;50.858;4.384;2023-02-01T10:48:16;23.55;;;4.00;;
22634;SDS011;11484;50.858;4.384;2023-02-01T10:50:57;18.38;;;3.75;;
22634;SDS011;11484;50.858;4.384;2023-02-01T10:53:38;21.13;;;3.78;;
22634;SDS011;11484;50.858;4.384;2023-02-01T10:56:28;16.95;;;3.42;;
22634;SDS011;11484;50.858;4.384;2023-02-01T10:59:01;18.38;;;3.33;;
22634;SDS011;11484;50.858;4.384;2023-02-01T11:01:39;17.92;;;4.25;;
22634;SDS011;11484;50.858;4.384;2023-02-01T11:04:09;13.38;;;2.80;;
22634;SDS011;11484;50.858;4.384;2023-02-01T11:06:41;14.32;;;2.80;;
22634;SDS011;11484;50.858;4.384;2023-02-01T11:09:16;10.93;;;3.20;;
22634;SDS011;11484;50.858;4.384;2023-02-01T11:16:50;19.80;;;3.38;;
22634;SDS011;11484;50.858;4.384;2023-02-01T11:19:18;16.20;;;3.90;;
22634;SDS011;11484;50.858;4.384;2023-02-01T11:21:46;12.93;;;3.28;;
22634;SDS011;11484;50.858;4.384;2023-02-01T11:24:37;14.27;;;3.85;;
22634;SDS011;11484;50.858;4.384;2023-02-01T11:27:04;28.52;;;5.40;;
22634;SDS011;11484;50.858;4.384;2023-02-01T11:29:40;10.52;;;3.03;;
22634;SDS011;11484;50.858;4.384;2023-02-01T11:32:09;11.30;;;3.22;;
22634;SDS011;11484;50.858;4.384;2023-02-01T11:34:37;16.20;;;4.32;;
22634;SDS011;11484;50.858;4.384;2023-02-01T11:37:18;16.08;;;3.45;;
22634;SDS011;11484;50.858;4.384;2023-02-01T11:39:54;19.60;;;3.75;;
22634;SDS011;11484;50.858;4.384;2023-02-01T11:42:21;18.13;;;4.00;;
22634;SDS011;11484;50.858;4.384;2023-02-01T11:44:47;15.25;;;2.63;;
22634;SDS011;11484;50.858;4.384;2023-02-01T11:47:24;18.58;;;3.45;;
22634;SDS011;11484;50.858;4.384;2023-02-01T11:49:52;16.38;;;3.20;;
22634;SDS011;11484;50.858;4.384;2023-02-01T12:09:26;10.63;;;2.53;;
22634;SDS011;11484;50.858;4.384;2023-02-01T12:12:06;14.15;;;3.45;;
22634;SDS011;11484;50.858;4.384;2023-02-01T12:14:46;14.25;;;3.72;;
22634;SDS011;11484;50.858;4.384;2023-02-01T12:17:24;16.95;;;4.07;;
22634;SDS011;11484;50.858;4.384;2023-02-01T12:23:11;12.40;;;3.00;;
22634;SDS011;11484;50.858;4.384;2023-02-01T12:29:00;10.35;;;2.90;;
22634;SDS011;11484;50.858;4.384;2023-02-01T12:31:53;15.85;;;3.00;;
22634;SDS011;11484;50.858;4.384;2023-02-01T12:42:07;17.77;;;3.97;;
22634;SDS011;11484;50.858;4.384;2023-02-01T12:44:50;12.68;;;4.35;;
22634;SDS011;11484;50.858;4.384;2023-02-01T12:52:35;16.73;;;2.50;;
22634;SDS011;11484;50.858;4.384;2023-02-01T12:55:29;8.55;;;2.53;;
22634;SDS011;11484;50.858;4.384;2023-02-01T12:58:06;11.02;;;2.92;;
22634;SDS011;11484;50.858;4.384;2023-02-01T13:00:50;9.65;;;2.40;;
22634;SDS011;11484;50.858;4.384;2023-02-01T13:06:19;11.40;;;2.85;;
22634;SDS011;11484;50.858;4.384;2023-02-01T13:09:12;19.63;;;3.65;;
22634;SDS011;11484;50.858;4.384;2023-02-01T13:12:12;13.40;;;2.20;;
22634;SDS011;11484;50.858;4.384;2023-02-01T13:17:21;9.52;;;2.10;;
22634;SDS011;11484;50.858;4.384;2023-02-01T13:22:32;10.65;;;2.25;;
22634;SDS011;11484;50.858;4.384;2023-02-01T13:25:13;10.30;;;2.55;;
22634;SDS011;11484;50.858;4.384;2023-02-01T13:27:43;16.20;;;2.63;;
22634;SDS011;11484;50.858;4.384;2023-02-01T13:30:23;19.15;;;3.20;;
22634;SDS011;11484;50.858;4.384;2023-02-01T13:41:06;14.85;;;3.03;;
22634;SDS011;11484;50.858;4.384;2023-02-01T13:43:52;10.93;;;2.90;;
22634;SDS011;11484;50.858;4.384;2023-02-01T13:46:44;12.82;;;3.03;;
22634;SDS011;11484;50.858;4.384;2023-02-01T13:49:22;8.55;;;2.55;;
22634;SDS011;11484;50.858;4.384;2023-02-01T13:54:38;15.50;;;3.03;;
22634;SDS011;11484;50.858;4.384;2023-02-01T13:57:06;12.63;;;3.05;;
22634;SDS011;11484;50.858;4.384;2023-02-01T14:00:22;14.68;;;2.45;;
22634;SDS011;11484;50.858;4.384;2023-02-01T14:21:46;16.70;;;3.22;;
22634;SDS011;11484;50.858;4.384;2023-02-01T14:24:16;12.90;;;2.17;;
22634;SDS011;11484;50.858;4.384;2023-02-01T14:26:49;12.32;;;2.70;;
22634;SDS011;11484;50.858;4.384;2023-02-01T14:29:21;5.78;;;1.92;;
22634;SDS011;11484;50.858;4.384;2023-02-01T14:37:01;13.77;;;3.35;;
22634;SDS011;11484;50.858;4.384;2023-02-01T14:39:49;18.60;;;3.88;;
22634;SDS011;11484;50.858;4.384;2023-02-01T14:42:32;11.73;;;3.10;;
22634;SDS011;11484;50.858;4.384;2023-02-01T14:47:52;12.15;;;2.38;;
22634;SDS011;11484;50.858;4.384;2023-02-01T15:01:21;16.48;;;3.60;;
22634;SDS011;11484;50.858;4.384;2023-02-01T15:09:20;10.48;;;2.20;;
22634;SDS011;11484;50.858;4.384;2023-02-01T15:14:38;11.25;;;3.50;;
22634;SDS011;11484;50.858;4.384;2023-02-01T15:17:27;14.55;;;2.78;;
22634;SDS011;11484;50.858;4.384;2023-02-01T15:19:59;12.73;;;3.70;;
22634;SDS011;11484;50.858;4.384;2023-02-01T15:22:28;13.90;;;3.53;;
22634;SDS011;11484;50.858;4.384;2023-02-01T15:24:56;12.80;;;3.85;;
22634;SDS011;11484;50.858;4.384;2023-02-01T15:27:24;12.20;;;3.05;;
22634;SDS011;11484;50.858;4.384;2023-02-01T15:29:50;11.80;;;3.13;;
22634;SDS011;11484;50.858;4.384;2023-02-01T15:38:25;14.27;;;3.25;;
22634;SDS011;11484;50.858;4.384;2023-02-01T15:40:57;19.17;;;3.78;;
22634;SDS011;11484;50.858;4.384;2023-02-01T15:43:24;10.85;;;3.17;;
22634;SDS011;11484;50.858;4.384;2023-02-01T15:45:55;15.13;;;3.70;;
22634;SDS011;11484;50.858;4.384;2023-02-01T15:48:26;11.95;;;3.13;;
22634;SDS011;11484;50.858;4.384;2023-02-01T15:50:54;19.40;;;3.95;;
22634;SDS011;11484;50.858;4.384;2023-02-01T15:53:22;19.52;;;3.88;;
22634;SDS011;11484;50.858;4.384;2023-02-01T15:55:54;14.32;;;3.30;;
22634;SDS011;11484;50.858;4.384;2023-02-01T15:58:22;15.50;;;3.58;;
22634;SDS011;11484;50.858;4.384;2023-02-01T16:00:51;15.95;;;3.42;;
22634;SDS011;11484;50.858;4.384;2023-02-01T16:06:01;14.95;;;3.50;;
22634;SDS011;11484;50.858;4.384;2023-02-01T16:08:48;15.57;;;2.85;;
22634;SDS011;11484;50.858;4.384;2023-02-01T16:14:18;16.35;;;3.42;;
22634;SDS011;11484;50.858;4.384;2023-02-01T16:16:44;24.17;;;4.03;;
22634;SDS011;11484;50.858;4.384;2023-02-01T16:19:10;13.95;;;3.20;;
22634;SDS011;11484;50.858;4.384;2023-02-01T16:21:36;15.27;;;4.03;;
22634;SDS011;11484;50.858;4.384;2023-02-01T16:24:01;16.08;;;3.70;;
22634;SDS011;11484;50.858;4.384;2023-02-01T16:26:29;20.23;;;4.50;;
22634;SDS011;11484;50.858;4.384;2023-02-01T16:28:56;14.65;;;3.67;;
22634;SDS011;11484;50.858;4.384;2023-02-01T16:31:25;9.55;;;3.05;;
22634;SDS011;11484;50.858;4.384;2023-02-01T16:33:52;18.02;;;4.32;;
22634;SDS011;11484;50.858;4.384;2023-02-01T16:36:18;15.15;;;3.63;;
22634;SDS011;11484;50.858;4.384;2023-02-01T16:38:45;19.25;;;3.65;;
22634;SDS011;11484;50.858;4.384;2023-02-01T16:41:13;12.98;;;3.08;;
22634;SDS011;11484;50.858;4.384;2023-02-01T16:43:40;11.68;;;3.40;;
22634;SDS011;11484;50.858;4.384;2023-02-01T16:46:08;12.30;;;3.83;;
22634;SDS011;11484;50.858;4.384;2023-02-01T16:48:40;13.35;;;3.83;;
22634;SDS011;11484;50.858;4.384;2023-02-01T16:51:11;17.48;;;3.80;;
22634;SDS011;11484;50.858;4.384;2023-02-01T16:53:39;15.02;;;3.50;;
22634;SDS011;11484;50.858;4.384;2023-02-01T16:56:15;16.95;;;3.90;;
22634;SDS011;11484;50.858;4.384;2023-02-01T16:58:43;19.17;;;3.60;;
22634;SDS011;11484;50.858;4.384;2023-02-01T17:01:10;19.25;;;3.67;;
22634;SDS011;11484;50.858;4.384;2023-02-01T17:03:41;14.32;;;3.83;;
22634;SDS011;11484;50.858;4.384;2023-02-01T17:06:09;19.60;;;4.05;;
22634;SDS011;11484;50.858;4.384;2023-02-01T17:08:37;14.27;;;3.30;;
22634;SDS011;11484;50.858;4.384;2023-02-01T17:11:06;14.37;;;3.43;;
22634;SDS011;11484;50.858;4.384;2023-02-01T17:13:32;12.68;;;3.80;;
22634;SDS011;11484;50.858;4.384;2023-02-01T17:16:03;17.85;;;4.85;;
22634;SDS011;11484;50.858;4.384;2023-02-01T17:18:34;14.90;;;4.18;;
22634;SDS011;11484;50.858;4.384;2023-02-01T17:21:00;13.70;;;3.58;;
22634;SDS011;11484;50.858;4.384;2023-02-01T17:23:28;16.73;;;3.35;;
22634;SDS011;11484;50.858;4.384;2023-02-01T17:25:55;14.40;;;4.03;;
22634;SDS011;11484;50.858;4.384;2023-02-01T17:28:21;19.63;;;3.80;;
22634;SDS011;11484;50.858;4.384;2023-02-01T17:30:47;21.40;;;5.35;;
22634;SDS011;11484;50.858;4.384;2023-02-01T17:33:19;20.08;;;3.95;;
22634;SDS011;11484;50.858;4.384;2023-02-01T17:35:52;13.30;;;3.67;;